createdAt,value
2019-01-26T00:01:07.957Z,-2.86
2019-01-26T00:03:39.412Z,-2.77
2019-01-26T00:06:12.109Z,-2.85
2019-01-26T00:08:43.611Z,-2.84
2019-01-26T00:11:15.595Z,-3.02
2019-01-26T00:13:47.047Z,-2.93
2019-01-26T00:16:21.141Z,-2.82
2019-01-26T00:18:52.156Z,-2.85
2019-01-26T00:21:23.625Z,-2.68
2019-01-26T00:23:56.146Z,-2.64
2019-01-26T00:26:29.708Z,-2.60
2019-01-26T00:29:01.183Z,-2.58
2019-01-26T00:31:32.660Z,-2.64
2019-01-26T00:34:04.080Z,-2.47
2019-01-26T00:36:35.542Z,-2.49
2019-01-26T00:39:09.854Z,-2.38
2019-01-26T00:41:41.364Z,-2.18
2019-01-26T00:44:13.810Z,-2.21
2019-01-26T00:46:45.271Z,-1.96
2019-01-26T00:49:16.686Z,-2.06
2019-01-26T00:51:48.154Z,-2.05
2019-01-26T00:54:19.578Z,-2.03
2019-01-26T00:56:51.056Z,-1.91
2019-01-26T00:59:22.466Z,-1.92
2019-01-26T01:01:53.970Z,-1.85
2019-01-26T01:04:25.673Z,-1.94
2019-01-26T01:06:57.106Z,-1.87
2019-01-26T01:09:28.530Z,-1.95
2019-01-26T01:12:00.000Z,-1.80
2019-01-26T01:14:31.500Z,-1.75
2019-01-26T01:17:02.958Z,-1.83
2019-01-26T01:19:35.346Z,-1.75
2019-01-26T01:22:06.810Z,-1.91
2019-01-26T01:24:38.162Z,-1.64
2019-01-26T01:27:09.645Z,-1.75
2019-01-26T01:29:42.648Z,-1.90
2019-01-26T01:32:14.116Z,-1.99
2019-01-26T01:34:47.659Z,-1.86
2019-01-26T01:37:18.972Z,-1.74
2019-01-26T01:39:50.402Z,-1.64
2019-01-26T01:42:21.858Z,-1.66
2019-01-26T01:44:53.273Z,-1.62
2019-01-26T01:47:24.714Z,-1.48
2019-01-26T01:50:01.543Z,-1.56
2019-01-26T01:52:33.015Z,-1.61
2019-01-26T01:55:04.484Z,-1.62
2019-01-26T01:57:37.414Z,-1.45
2019-01-26T02:00:16.894Z,-1.55
2019-01-26T02:02:48.354Z,-1.48
2019-01-26T02:05:19.892Z,-1.59
2019-01-26T02:07:51.720Z,-1.33
2019-01-26T02:10:25.164Z,-1.38
2019-01-26T02:12:56.559Z,-1.41
2019-01-26T02:15:27.966Z,-1.49
2019-01-26T02:17:59.434Z,-1.48
2019-01-26T02:20:30.859Z,-1.47
2019-01-26T02:23:02.520Z,-1.39
2019-01-26T02:25:33.987Z,-1.27
2019-01-26T02:28:05.539Z,-1.43
2019-01-26T02:30:36.962Z,-1.15
2019-01-26T02:33:08.419Z,-1.14
2019-01-26T02:35:39.846Z,-1.13
2019-01-26T02:38:11.307Z,-1.00
2019-01-26T02:40:42.720Z,-0.96
2019-01-26T02:43:14.179Z,-0.93
2019-01-26T02:45:48.023Z,-0.83
2019-01-26T02:48:19.480Z,-0.74
2019-01-26T02:50:50.889Z,-0.57
2019-01-26T02:53:22.252Z,-0.44
2019-01-26T02:55:53.673Z,-0.54
2019-01-26T02:58:26.119Z,-0.38
2019-01-26T03:00:57.538Z,-0.25
2019-01-26T03:03:28.978Z,-0.21
2019-01-26T03:06:00.383Z,-0.06
2019-01-26T03:08:31.839Z,0.00
2019-01-26T03:11:03.234Z,0.01
2019-01-26T03:13:34.728Z,0.10
2019-01-26T03:16:06.234Z,-0.03
2019-01-26T03:18:37.678Z,0.14
2019-01-26T03:21:09.077Z,0.24
2019-01-26T03:23:40.723Z,0.07
2019-01-26T03:26:12.141Z,0.18
2019-01-26T03:28:43.653Z,0.03
2019-01-26T03:31:15.063Z,0.03
2019-01-26T03:33:46.515Z,0.13
2019-01-26T03:36:17.935Z,0.19
2019-01-26T03:38:49.366Z,0.14
2019-01-26T03:41:20.912Z,0.03
2019-01-26T03:43:52.347Z,0.06
2019-01-26T03:46:23.751Z,0.13
2019-01-26T03:48:55.194Z,0.06
2019-01-26T03:51:26.607Z,0.05
2019-01-26T03:53:58.057Z,-0.01
2019-01-26T03:56:32.738Z,0.06
2019-01-26T03:59:02.707Z,0.00
2019-01-26T04:01:34.209Z,-0.04
2019-01-26T04:04:06.622Z,-0.18
2019-01-26T04:06:39.168Z,-0.10
2019-01-26T04:09:12.538Z,-0.32
2019-01-26T04:11:43.946Z,-0.27
2019-01-26T04:14:15.374Z,-0.25
2019-01-26T04:16:46.790Z,-0.14
2019-01-26T04:19:18.138Z,-0.10
2019-01-26T04:21:49.558Z,-0.12
2019-01-26T04:24:21.289Z,-0.10
2019-01-26T04:26:52.705Z,-0.11
2019-01-26T04:29:25.682Z,-0.04
2019-01-26T04:31:57.109Z,-0.03
2019-01-26T04:34:28.568Z,-0.17
2019-01-26T04:36:59.920Z,-0.07
2019-01-26T04:39:31.359Z,-0.09
2019-01-26T04:42:02.784Z,-0.11
2019-01-26T04:44:34.153Z,-0.15
2019-01-26T04:47:07.337Z,-0.10
2019-01-26T04:49:39.779Z,-0.11
2019-01-26T04:52:11.232Z,-0.15
2019-01-26T04:54:42.735Z,-0.24
2019-01-26T04:57:14.155Z,-0.17
2019-01-26T04:59:48.584Z,-0.26
2019-01-26T05:02:20.042Z,-0.31
2019-01-26T05:04:51.536Z,-0.22
2019-01-26T05:07:23.015Z,-0.24
2019-01-26T05:09:54.461Z,-0.35
2019-01-26T05:12:25.973Z,-0.30
2019-01-26T05:14:57.446Z,-0.34
2019-01-26T05:17:28.892Z,-0.40
2019-01-26T05:20:00.349Z,-0.35
2019-01-26T05:22:31.785Z,-0.24
2019-01-26T05:25:03.231Z,-0.27
2019-01-26T05:27:34.639Z,-0.32
2019-01-26T05:30:10.251Z,-0.39
2019-01-26T05:32:41.665Z,-0.11
2019-01-26T05:35:13.111Z,-0.12
2019-01-26T05:37:45.893Z,-0.24
2019-01-26T05:40:17.724Z,-0.20
2019-01-26T05:42:50.826Z,-0.24
2019-01-26T05:45:25.775Z,-0.20
2019-01-26T05:47:58.297Z,-0.19
2019-01-26T05:50:29.760Z,-0.11
2019-01-26T05:53:01.181Z,-0.10
2019-01-26T05:55:32.712Z,-0.12
2019-01-26T05:58:04.336Z,0.10
2019-01-26T06:00:36.638Z,0.06
2019-01-26T06:03:08.051Z,0.09
2019-01-26T06:05:42.903Z,0.32
2019-01-26T06:08:14.309Z,0.28
2019-01-26T06:10:45.761Z,0.31
2019-01-26T06:13:17.191Z,0.35
2019-01-26T06:15:48.670Z,0.44
2019-01-26T06:18:20.067Z,0.43
2019-01-26T06:20:51.507Z,0.36
2019-01-26T06:23:22.927Z,0.39
2019-01-26T06:25:54.385Z,0.48
2019-01-26T06:28:25.810Z,0.43
2019-01-26T06:30:58.495Z,0.60
2019-01-26T06:33:29.935Z,0.50
2019-01-26T06:36:01.391Z,0.61
2019-01-26T06:38:32.728Z,0.53
2019-01-26T06:41:05.897Z,0.53
2019-01-26T06:43:38.407Z,0.59
2019-01-26T06:46:11.345Z,0.63
2019-01-26T06:48:42.693Z,0.66
2019-01-26T06:51:14.127Z,0.68
2019-01-26T06:53:45.555Z,0.78
2019-01-26T06:56:16.991Z,0.81
2019-01-26T06:58:48.417Z,0.76
2019-01-26T07:01:19.789Z,0.85
2019-01-26T07:03:51.219Z,0.81
2019-01-26T07:06:27.503Z,1.07
2019-01-26T07:08:59.103Z,1.05
2019-01-26T07:11:30.527Z,0.92
2019-01-26T07:14:02.003Z,1.09
2019-01-26T07:16:33.431Z,0.99
2019-01-26T07:19:04.841Z,1.06
2019-01-26T07:21:36.279Z,1.11
2019-01-26T07:24:07.682Z,1.16
2019-01-26T07:26:39.133Z,1.05
2019-01-26T07:29:10.578Z,1.18
2019-01-26T07:31:42.048Z,1.12
2019-01-26T07:34:13.470Z,1.13
2019-01-26T07:36:44.904Z,1.24
2019-01-26T07:39:16.275Z,1.22
2019-01-26T07:41:47.734Z,1.17
2019-01-26T07:44:19.066Z,1.29
2019-01-26T07:46:53.245Z,1.40
2019-01-26T07:49:24.657Z,1.37
2019-01-26T07:51:56.104Z,1.24
2019-01-26T07:54:29.958Z,1.26
2019-01-26T07:57:01.371Z,1.16
2019-01-26T07:59:32.790Z,1.32
2019-01-26T08:02:04.236Z,1.35
2019-01-26T08:04:35.659Z,1.33
2019-01-26T08:07:07.509Z,1.28
2019-01-26T08:09:38.959Z,1.43
2019-01-26T08:12:12.073Z,1.37
2019-01-26T08:14:44.804Z,1.39
2019-01-26T08:17:16.294Z,1.47
2019-01-26T08:19:47.693Z,1.54
2019-01-26T08:22:20.643Z,1.55
2019-01-26T08:24:52.075Z,1.46
2019-01-26T08:27:24.528Z,1.66
2019-01-26T08:29:55.939Z,1.53
2019-01-26T08:32:27.380Z,1.56
2019-01-26T08:34:58.834Z,1.55
2019-01-26T08:37:30.353Z,1.64
2019-01-26T08:40:01.784Z,1.74
2019-01-26T08:42:33.231Z,1.78
2019-01-26T08:45:06.657Z,1.70
2019-01-26T08:47:38.121Z,1.71
2019-01-26T08:50:25.384Z,1.74
2019-01-26T08:52:56.848Z,1.76
2019-01-26T08:55:28.258Z,1.78
2019-01-26T08:58:00.763Z,1.86
2019-01-26T09:00:32.189Z,1.90
2019-01-26T09:03:19.711Z,1.99
2019-01-26T09:06:02.529Z,2.04
2019-01-26T09:08:34.119Z,1.93
2019-01-26T09:11:05.671Z,1.95
2019-01-26T09:13:37.041Z,2.06
2019-01-26T09:16:11.069Z,2.07
2019-01-26T09:18:42.575Z,2.22
2019-01-26T09:21:13.997Z,2.14
2019-01-26T09:23:45.455Z,2.17
2019-01-26T09:26:18.495Z,2.22
2019-01-26T09:28:50.681Z,2.13
2019-01-26T09:31:23.880Z,2.24
2019-01-26T09:33:55.310Z,2.09
2019-01-26T09:36:26.749Z,2.21
2019-01-26T09:38:58.195Z,2.23
2019-01-26T09:41:29.666Z,2.38
2019-01-26T09:44:01.150Z,2.46
2019-01-26T09:46:32.789Z,2.21
2019-01-26T09:49:05.310Z,2.32
2019-01-26T09:51:37.200Z,2.32
2019-01-26T09:54:08.845Z,2.31
2019-01-26T09:56:40.271Z,2.24
2019-01-26T09:59:11.770Z,2.11
2019-01-26T10:01:43.206Z,2.11
2019-01-26T10:04:15.574Z,2.18
2019-01-26T10:06:47.054Z,2.38
2019-01-26T10:09:18.622Z,2.38
2019-01-26T10:11:50.095Z,2.43
2019-01-26T10:14:21.565Z,2.50
2019-01-26T10:16:53.028Z,2.37
2019-01-26T10:19:24.446Z,2.38
2019-01-26T10:21:56.004Z,2.44
2019-01-26T10:24:27.877Z,2.47
2019-01-26T10:26:59.296Z,2.25
2019-01-26T10:29:30.832Z,2.45
2019-01-26T10:32:02.307Z,2.58
2019-01-26T10:34:33.742Z,2.57
2019-01-26T10:37:11.281Z,2.57
2019-01-26T10:39:45.764Z,2.72
2019-01-26T10:42:23.984Z,2.90
2019-01-26T10:44:58.026Z,2.95
2019-01-26T10:47:29.544Z,2.81
2019-01-26T10:50:02.494Z,2.90
2019-01-26T10:52:33.961Z,2.75
2019-01-26T10:55:08.506Z,2.85
2019-01-26T10:57:40.029Z,2.86
2019-01-26T11:00:15.459Z,2.86
2019-01-26T11:02:46.918Z,3.04
2019-01-26T11:05:18.721Z,3.10
2019-01-26T11:07:50.199Z,3.04
2019-01-26T11:10:21.660Z,2.86
2019-01-26T11:12:53.117Z,3.14
2019-01-26T11:15:24.622Z,3.04
2019-01-26T11:17:56.066Z,3.03
2019-01-26T11:20:29.160Z,3.04
2019-01-26T11:23:00.656Z,3.17
2019-01-26T11:25:34.459Z,3.20
2019-01-26T11:28:05.895Z,3.30
2019-01-26T11:30:38.413Z,3.28
2019-01-26T11:33:09.877Z,3.43
2019-01-26T11:35:41.337Z,3.56
2019-01-26T11:38:13.084Z,3.58
2019-01-26T11:40:51.037Z,3.65
2019-01-26T11:43:36.716Z,3.70
2019-01-26T11:46:16.884Z,3.84
2019-01-26T11:48:50.539Z,4.08
2019-01-26T11:51:32.928Z,3.98
2019-01-26T11:54:04.369Z,3.93
2019-01-26T11:56:47.741Z,4.17
2019-01-26T11:59:19.323Z,4.11
2019-01-26T12:02:10.826Z,4.10
2019-01-26T12:04:50.387Z,4.19
2019-01-26T12:07:26.917Z,3.98
2019-01-26T12:09:58.391Z,4.01
2019-01-26T12:12:29.889Z,4.14
2019-01-26T12:15:01.252Z,3.91
2019-01-26T12:17:32.771Z,4.11
2019-01-26T12:20:04.994Z,4.23
2019-01-26T12:22:36.595Z,4.16
2019-01-26T12:25:08.197Z,4.28
2019-01-26T12:27:40.189Z,4.27
2019-01-26T12:30:13.291Z,4.20
2019-01-26T12:32:44.700Z,4.41
2019-01-26T12:35:16.181Z,4.38
2019-01-26T12:37:48.867Z,4.32
2019-01-26T12:40:20.316Z,4.51
2019-01-26T12:42:51.751Z,4.54
2019-01-26T12:45:23.295Z,4.45
2019-01-26T12:47:55.925Z,4.63
2019-01-26T12:50:27.446Z,4.56
2019-01-26T12:52:59.034Z,4.56
2019-01-26T12:55:30.643Z,4.70
2019-01-26T12:58:02.175Z,4.46
2019-01-26T13:00:33.912Z,4.53
2019-01-26T13:03:05.963Z,4.38
2019-01-26T13:05:37.502Z,4.42
2019-01-26T13:08:10.028Z,4.40
2019-01-26T13:10:46.600Z,4.53
2019-01-26T13:13:20.124Z,4.54
2019-01-26T13:15:51.364Z,4.54
2019-01-26T13:18:22.813Z,4.76
2019-01-26T13:20:54.236Z,4.83
2019-01-26T13:23:25.712Z,4.64
2019-01-26T13:25:59.710Z,4.92
2019-01-26T13:28:31.201Z,4.64
2019-01-26T13:31:02.684Z,4.60
2019-01-26T13:33:34.217Z,4.54
2019-01-26T13:36:06.104Z,4.54
2019-01-26T13:38:37.570Z,4.52
2019-01-26T13:41:09.036Z,4.52
2019-01-26T13:43:40.503Z,4.58
2019-01-26T13:46:11.945Z,4.64
2019-01-26T13:48:44.711Z,4.63
2019-01-26T13:51:16.130Z,4.58
2019-01-26T13:53:47.629Z,4.57
2019-01-26T13:56:19.093Z,4.65
2019-01-26T13:58:50.524Z,4.72
2019-01-26T14:01:21.956Z,4.83
2019-01-26T14:03:53.450Z,4.87
2019-01-26T14:06:24.878Z,4.72
2019-01-26T14:08:56.361Z,4.81
2019-01-26T14:11:29.361Z,4.83
2019-01-26T14:14:00.834Z,4.75
2019-01-26T14:16:32.319Z,4.80
2019-01-26T14:19:03.915Z,4.70
2019-01-26T14:21:35.422Z,4.81
2019-01-26T14:24:06.819Z,4.82
2019-01-26T14:26:38.316Z,4.87
2019-01-26T14:29:13.652Z,4.85
2019-01-26T14:31:45.121Z,4.93
2019-01-26T14:34:16.568Z,4.79
2019-01-26T14:36:48.010Z,4.89
2019-01-26T14:39:19.812Z,4.69
2019-01-26T14:41:51.265Z,4.64
2019-01-26T14:44:24.405Z,4.67
2019-01-26T14:46:55.841Z,4.75
2019-01-26T14:49:27.521Z,4.74
2019-01-26T14:51:59.927Z,4.76
2019-01-26T14:54:31.483Z,4.86
2019-01-26T14:57:02.964Z,4.73
2019-01-26T14:59:35.451Z,4.82
2019-01-26T15:02:07.136Z,4.77
2019-01-26T15:04:38.700Z,4.71
2019-01-26T15:07:10.218Z,4.77
2019-01-26T15:09:41.800Z,4.69
2019-01-26T15:12:13.219Z,4.60
2019-01-26T15:14:44.710Z,4.56
2019-01-26T15:17:16.180Z,4.40
2019-01-26T15:19:47.616Z,4.64
2019-01-26T15:22:19.054Z,4.51
2019-01-26T15:24:50.501Z,4.65
2019-01-26T15:27:24.336Z,4.59
2019-01-26T15:29:55.969Z,4.55
2019-01-26T15:32:27.406Z,4.56
2019-01-26T15:34:58.862Z,4.53
2019-01-26T15:37:30.258Z,4.53
2019-01-26T15:40:01.690Z,4.60
2019-01-26T15:42:33.118Z,4.46
2019-01-26T15:45:06.023Z,4.49
2019-01-26T15:47:37.514Z,4.56
2019-01-26T15:50:13.100Z,4.41
2019-01-26T15:52:43.401Z,4.48
2019-01-26T15:55:17.851Z,4.54
2019-01-26T15:57:49.272Z,4.46
2019-01-26T16:00:27.407Z,4.42
2019-01-26T16:02:59.057Z,4.47
2019-01-26T16:05:30.633Z,4.52
2019-01-26T16:08:03.033Z,4.45
2019-01-26T16:10:34.505Z,4.31
2019-01-26T16:13:06.678Z,4.16
2019-01-26T16:15:38.949Z,4.34
2019-01-26T16:18:14.357Z,4.22
2019-01-26T16:20:45.932Z,4.26
2019-01-26T16:23:17.402Z,4.49
2019-01-26T16:25:48.927Z,4.31
2019-01-26T16:28:20.496Z,4.31
2019-01-26T16:30:52.000Z,4.29
2019-01-26T16:33:23.491Z,4.33
2019-01-26T16:35:55.055Z,4.09
2019-01-26T16:38:29.472Z,4.02
2019-01-26T16:41:02.042Z,4.25
2019-01-26T16:43:33.474Z,4.17
2019-01-26T16:46:04.983Z,4.19
2019-01-26T16:48:36.585Z,4.34
2019-01-26T16:51:08.788Z,4.13
2019-01-26T16:53:40.287Z,4.16
2019-01-26T16:56:11.837Z,4.17
2019-01-26T16:58:43.379Z,3.97
2019-01-26T17:01:14.826Z,4.04
2019-01-26T17:03:46.365Z,4.04
2019-01-26T17:06:17.876Z,4.20
2019-01-26T17:08:49.318Z,4.19
2019-01-26T17:11:20.716Z,3.94
2019-01-26T17:13:52.243Z,4.00
2019-01-26T17:16:23.751Z,3.98
2019-01-26T17:18:55.194Z,4.07
2019-01-26T17:21:27.637Z,4.13
2019-01-26T17:23:59.079Z,4.06
2019-01-26T17:26:30.550Z,4.23
2019-01-26T17:29:03.948Z,4.22
2019-01-26T17:31:35.416Z,4.05
2019-01-26T17:34:06.890Z,4.22
2019-01-26T17:36:38.339Z,4.14
2019-01-26T17:39:13.349Z,4.18
2019-01-26T17:41:44.893Z,4.34
2019-01-26T17:44:16.306Z,4.11
2019-01-26T17:46:47.757Z,4.18
2019-01-26T17:49:19.160Z,4.29
2019-01-26T17:51:50.609Z,4.29
2019-01-26T17:54:22.025Z,4.23
2019-01-26T17:56:53.480Z,4.35
2019-01-26T17:59:25.007Z,4.25
2019-01-26T18:01:58.831Z,4.17
2019-01-26T18:04:30.250Z,4.25
2019-01-26T18:07:01.690Z,4.21
2019-01-26T18:09:34.080Z,4.40
2019-01-26T18:12:08.700Z,4.32
2019-01-26T18:14:40.129Z,4.17
2019-01-26T18:17:11.708Z,4.14
2019-01-26T18:19:43.162Z,4.22
2019-01-26T18:22:14.657Z,4.11
2019-01-26T18:24:47.588Z,4.21
2019-01-26T18:27:19.034Z,4.31
2019-01-26T18:29:50.513Z,4.10
2019-01-26T18:32:23.606Z,4.34
2019-01-26T18:34:55.042Z,4.33
2019-01-26T18:37:27.525Z,4.23
2019-01-26T18:39:58.960Z,4.36
2019-01-26T18:42:31.559Z,4.23
2019-01-26T18:45:02.976Z,4.29
2019-01-26T18:47:34.626Z,4.27
2019-01-26T18:50:08.785Z,4.33
2019-01-26T18:52:40.264Z,4.29
2019-01-26T18:55:13.119Z,4.32
2019-01-26T18:57:44.675Z,4.28
2019-01-26T19:00:30.160Z,4.19
2019-01-26T19:03:28.102Z,4.39
2019-01-26T19:05:59.767Z,4.33
2019-01-26T19:08:31.274Z,4.43
2019-01-26T19:11:02.774Z,4.44
2019-01-26T19:13:34.298Z,4.37
2019-01-26T19:16:07.370Z,4.39
2019-01-26T19:18:38.997Z,4.24
2019-01-26T19:21:10.560Z,4.38
2019-01-26T19:23:44.520Z,4.12
2019-01-26T19:26:15.944Z,4.02
2019-01-26T19:28:47.482Z,4.40
2019-01-26T19:31:19.382Z,4.26
2019-01-26T19:33:50.879Z,4.15
2019-01-26T19:36:22.311Z,4.18
2019-01-26T19:38:53.771Z,4.15
2019-01-26T19:41:25.201Z,4.14
2019-01-26T19:43:56.664Z,4.06
2019-01-26T19:46:28.076Z,4.23
2019-01-26T19:48:59.529Z,4.20
2019-01-26T19:51:30.936Z,4.06
2019-01-26T19:54:02.417Z,4.06
2019-01-26T19:56:33.922Z,4.09
2019-01-26T19:59:05.774Z,4.00
2019-01-26T20:01:37.192Z,3.92
2019-01-26T20:04:08.745Z,3.87
2019-01-26T20:06:40.196Z,3.88
2019-01-26T20:09:11.911Z,3.89
2019-01-26T20:11:43.344Z,3.87
2019-01-26T20:14:14.722Z,3.76
2019-01-26T20:16:46.163Z,3.86
2019-01-26T20:19:17.751Z,3.89
2019-01-26T20:21:49.176Z,3.91
2019-01-26T20:24:20.717Z,3.95
2019-01-26T20:26:52.111Z,3.94
2019-01-26T20:29:23.594Z,3.76
2019-01-26T20:31:55.006Z,3.74
2019-01-26T20:34:26.565Z,3.76
2019-01-26T20:36:57.945Z,3.84
2019-01-26T20:39:29.565Z,3.95
2019-01-26T20:42:01.066Z,3.89
2019-01-26T20:44:32.587Z,3.84
2019-01-26T20:47:04.009Z,4.05
2019-01-26T20:49:35.450Z,3.79
2019-01-26T20:52:06.878Z,3.85
2019-01-26T20:54:38.395Z,3.75
2019-01-26T20:57:10.864Z,3.74
2019-01-26T20:59:42.375Z,3.68
2019-01-26T21:02:13.857Z,3.58
2019-01-26T21:04:45.297Z,3.51
2019-01-26T21:07:20.328Z,3.73
2019-01-26T21:09:51.771Z,3.62
2019-01-26T21:12:23.193Z,3.60
2019-01-26T21:14:54.628Z,3.55
2019-01-26T21:17:26.054Z,3.43
2019-01-26T21:19:57.541Z,3.27
2019-01-26T21:22:28.966Z,3.37
2019-01-26T21:25:01.631Z,3.40
2019-01-26T21:27:33.235Z,3.43
2019-01-26T21:30:05.933Z,3.23
2019-01-26T21:32:37.360Z,3.30
2019-01-26T21:35:09.949Z,3.20
2019-01-26T21:37:41.437Z,3.25
2019-01-26T21:40:20.072Z,3.34
2019-01-26T21:42:51.502Z,3.20
2019-01-26T21:45:23.210Z,3.26
2019-01-26T21:47:57.140Z,3.27
2019-01-26T21:50:30.566Z,3.24
2019-01-26T21:53:02.092Z,3.28
2019-01-26T21:55:34.342Z,3.04
2019-01-26T21:58:05.903Z,3.21
2019-01-26T22:00:37.348Z,3.26
2019-01-26T22:03:08.815Z,3.22
2019-01-26T22:05:40.272Z,3.21
2019-01-26T22:08:11.767Z,3.00
2019-01-26T22:10:43.193Z,3.01
2019-01-26T22:13:18.386Z,2.86
2019-01-26T22:15:49.850Z,2.77
2019-01-26T22:18:21.653Z,2.75
2019-01-26T22:20:53.155Z,2.71
2019-01-26T22:23:24.584Z,2.74
2019-01-26T22:25:56.110Z,2.64
2019-01-26T22:28:27.567Z,2.55
2019-01-26T22:30:58.990Z,2.46
2019-01-26T22:33:30.447Z,2.43
2019-01-26T22:36:03.470Z,2.41
2019-01-26T22:38:35.201Z,2.33
2019-01-26T22:41:06.616Z,2.19
2019-01-26T22:43:38.021Z,2.26
2019-01-26T22:46:09.483Z,2.16
2019-01-26T22:48:40.919Z,1.87
2019-01-26T22:51:13.904Z,1.94
2019-01-26T22:53:45.319Z,1.95
2019-01-26T22:56:16.716Z,2.07
2019-01-26T22:58:48.190Z,2.02
2019-01-26T23:01:33.209Z,1.86
2019-01-26T23:05:34.617Z,1.86
2019-01-26T23:08:16.696Z,1.79
2019-01-26T23:11:50.084Z,1.80
2019-01-26T23:15:15.242Z,1.64
2019-01-26T23:18:54.854Z,1.56
2019-01-26T23:22:41.436Z,1.52
2019-01-26T23:25:49.990Z,1.47
2019-01-26T23:29:33.002Z,1.48
2019-01-26T23:32:06.268Z,1.53
2019-01-26T23:34:37.728Z,1.58
2019-01-26T23:37:09.152Z,1.54
2019-01-26T23:39:42.666Z,1.52
2019-01-26T23:42:14.091Z,1.48
2019-01-26T23:44:46.407Z,1.50
2019-01-26T23:47:17.814Z,1.47
2019-01-26T23:49:49.245Z,1.48
2019-01-26T23:52:20.688Z,1.51
2019-01-26T23:54:52.051Z,1.50
2019-01-26T23:57:23.480Z,1.50
2019-01-26T23:59:54.973Z,1.41
